Terminal Aerodrome Forecast
Issued by NWS Charleston, WV

Current Version | Previous Version | Graphics & Text | Print | Product List | Glossary Off
Versions: 1 2 3 4 5 6 7 8 9 10 11 12 13 14 15 16 17 18 19 20 21 22 23 24 25

000
FTUS41 KRLX 301735
TAFEKN
TAF
KEKN 301735Z 3018/3118 29004KT P6SM SCT050 BKN150
     FM302300 VRB03KT P6SM BKN080
     FM310400 00000KT 6SM BR BKN050
     FM311300 VRB03KT P6SM BKN040=

USA.gov is the U.S. government's official web portal to all federal, state and local government web resources and services.